Дата Пункты Температура Давл., мм. Влажн., % Ветер Погодные явления
Воздуха Воды Направл. Скорость
26.08.15 02:00 Одесса 25.0 22.0 761 65 Пд 4 15 часов
26.08.15 11:00 Одесса 24.0 22.0 762 78 Пд-С 3 12 часов
26.08.15 08:00 Одесса 23.0 22.0 761 90 С 1 09 часов
26.08.15 05:00 Одесса 18.0 22.0 761 97 Пн 0 06 часов
26.08.15 02:00 Одесса 19.0 22.0 761 98 Пн 0 03 часа
25.08.15 08:00 Одесса 23.0 22.0 760 51 Пд 2 21 час
25.08.15 05:00 Одесса 26.0 22.0 760 48 Пд 2 18 часов
25.08.15 02:00 Одесса 24.0 22.0 761 73 Пд-С 2 15 часов
25.08.15 11:00 Одесса 24.0 22.0 761 63 С 3 12 часов
25.08.15 08:00 Одесса 22.0 22.0 761 59 Пн 3 09 часов
25.08.15 05:00 Одесса 19.0 22.0 761 59 Пн-З 2 06 часов
25.08.15 02:00 Одесса 19.0 22.0 760 77 Пн-З 1 03 часа
24.08.15 08:00 Одесса 22.0 22.0 760 53 З 1 21 час
24.08.15 05:00 Одесса 28.0 23.0 759 27 Пд 1 18 часов
24.08.15 02:00 Одесса 29.0 23.0 759 26 Пд-С 2 15 часов
24.08.15 11:00 Одесса 27.0 22.0 759 37 Пн-С 2 12 часов
24.08.15 08:00 Одесса 24.0 22.0 758 48 Пн-З 2 09 часов
24.08.15 05:00 Одесса 20.0 22.0 757 54 Пн-З 2 06 часов
24.08.15 02:00 Одесса 20.0 22.0 756 60 Пн-З 1 03 часа
23.08.15 08:00 Одесса 22.0 22.0 756 43 З 2 21 час
Количество строк
351 352 353 354 355 356 357 358 359 360
Page 355 of 481